Time;durP1;ratioP1;P1;durP2;ratioP2;P2;SDS_P1;SDS_P2;PMS_P1;PMS_P2;Temp;Humidity;BMP_temperature;BMP_pressure;BME280_temperature;BME280_humidity;BME280_pressure;Samples;Min_cycle;Max_cycle;Signal;HPM_P1;HPM_P2
2023/10/18 00:01:39;;;;;;;;;;;;;;;5.20;97.77;101241.38;5038292;28;19917;-92
2023/10/18 00:04:05;;;;;;;;;;;;;;;5.19;97.81;101240.53;5038391;28;20370;-91
2023/10/18 00:06:39;;;;;;;;;;;;;;;5.19;97.63;101235.31;5055530;28;20068;-93
2023/10/18 00:11:56;;;;;;;;;;;;;;;5.22;97.02;101236.25;5055624;28;19955;-92
2023/10/18 00:14:21;;;;;;;;;;;;;;;5.17;97.83;101242.22;5022551;28;20349;-92
2023/10/18 00:16:50;;;;;;;;;;;;;;;5.16;97.61;101243.06;5037475;28;19913;-92
2023/10/18 00:19:15;;;;;;;;;;;;;;;5.15;97.89;101241.31;5038033;28;19917;-91
2023/10/18 00:24:43;;;;;;;;;;;;;;;5.14;97.70;101231.78;5054641;28;19927;-92
2023/10/18 00:27:12;;;;;;;;;;;;;;;5.19;97.03;101224.06;5038332;28;19917;-91
2023/10/18 00:29:39;;;;;;;;;;;;;;;5.21;97.38;101230.16;5038003;28;19917;-92
2023/10/18 00:32:05;;;;;;;;;;;;;;;5.24;97.69;101222.41;5037817;28;19920;-92
2023/10/18 00:34:32;;;;;;;;;;;;;;;5.18;96.91;101217.97;5037190;28;19913;-93
2023/10/18 00:36:58;;;;;;;;;;;;;;;5.16;97.57;101219.69;5036802;28;20371;-92
2023/10/18 00:39:32;;;;;;;;;;;;;;;5.16;97.59;101218.81;5037295;28;19917;-92
2023/10/18 00:45:08;;;;;;;;;;;;;;;5.12;97.04;101228.28;4982274;28;19957;-92
2023/10/18 00:47:35;;;;;;;;;;;;;;;5.16;97.76;101224.88;5032190;28;19917;-93
2023/10/18 00:50:06;;;;;;;;;;;;;;;5.11;97.50;101223.91;5037030;28;19912;-92
2023/10/18 00:52:35;;;;;;;;;;;;;;;5.07;97.90;101223.84;5037461;28;19912;-92
2023/10/18 00:55:05;;;;;;;;;;;;;;;5.06;97.80;101214.28;5020581;28;19982;-91
2023/10/18 00:57:48;;;;;;;;;;;;;;;5.04;97.61;101222.06;5021238;28;19940;-92
2023/10/18 01:00:19;;;;;;;;;;;;;;;5.04;97.94;101216.88;5036850;28;19924;-92
2023/10/18 01:02:48;;;;;;;;;;;;;;;5.05;98.03;101207.38;5037144;28;19963;-93
2023/10/18 01:05:15;;;;;;;;;;;;;;;5.04;97.87;101203.88;5036876;28;19916;-92
2023/10/18 01:07:41;;;;;;;;;;;;;;;5.02;97.99;101200.41;5037380;28;20000;-91
2023/10/18 01:10:09;;;;;;;;;;;;;;;4.97;97.96;101199.44;5054857;28;20317;-93
2023/10/18 01:12:38;;;;;;;;;;;;;;;4.94;97.56;101196.78;5036529;28;20368;-92
2023/10/18 01:15:06;;;;;;;;;;;;;;;4.89;97.81;101191.53;5021228;28;19921;-93
2023/10/18 01:17:34;;;;;;;;;;;;;;;4.90;98.21;101188.09;5036310;28;19952;-92
2023/10/18 01:19:59;;;;;;;;;;;;;;;4.92;98.04;101188.13;5036478;28;20007;-92
2023/10/18 01:22:30;;;;;;;;;;;;;;;4.90;97.93;101184.59;5036839;28;19956;-92
2023/10/18 01:25:10;;;;;;;;;;;;;;;4.90;97.90;101174.22;5036270;28;19921;-93
2023/10/18 01:27:48;;;;;;;;;;;;;;;4.88;97.84;101170.72;5022065;28;19924;-93
2023/10/18 01:30:15;;;;;;;;;;;;;;;4.87;97.92;101175.06;5020810;28;19971;-92
2023/10/18 01:32:41;;;;;;;;;;;;;;;4.88;98.09;101165.53;5036344;28;19912;-93
2023/10/18 01:35:15;;;;;;;;;;;;;;;4.90;97.60;101169.00;5036479;28;20028;-93
2023/10/18 01:37:43;;;;;;;;;;;;;;;4.88;98.21;101170.72;5036108;28;19974;-92
2023/10/18 01:40:41;;;;;;;;;;;;;;;4.91;97.79;101157.78;5036552;28;19917;-93
2023/10/18 01:43:06;;;;;;;;;;;;;;;4.86;97.74;101149.94;5036604;28;20011;-93
2023/10/18 01:45:38;;;;;;;;;;;;;;;4.85;97.67;101145.56;5036171;28;19944;-92
2023/10/18 01:48:17;;;;;;;;;;;;;;;4.84;97.16;101141.22;5036461;28;20049;-92
2023/10/18 01:50:43;;;;;;;;;;;;;;;4.76;97.91;101129.84;5036191;28;19913;-92
2023/10/18 01:53:15;;;;;;;;;;;;;;;4.74;98.33;101127.25;5053798;28;19920;-92
2023/10/18 01:55:51;;;;;;;;;;;;;;;4.71;98.42;101131.47;5053933;28;19920;-92
2023/10/18 01:58:18;;;;;;;;;;;;;;;4.73;98.05;101125.47;5036011;28;20395;-92
2023/10/18 02:00:44;;;;;;;;;;;;;;;4.72;98.02;101122.84;5036266;28;19916;-92
2023/10/18 02:03:12;;;;;;;;;;;;;;;4.77;98.65;101121.19;5035910;28;19920;-92
2023/10/18 02:05:39;;;;;;;;;;;;;;;4.75;98.55;101120.31;5036521;28;19913;-92
2023/10/18 02:08:14;;;;;;;;;;;;;;;4.72;98.39;101110.75;5019494;28;19924;-92
2023/10/18 02:10:42;;;;;;;;;;;;;;;4.74;98.07;101121.16;5035962;28;19920;-92
2023/10/18 02:13:14;;;;;;;;;;;;;;;4.67;97.97;101110.66;5035896;28;19913;-92
2023/10/18 02:15:40;;;;;;;;;;;;;;;4.69;98.00;101108.97;5020318;28;19917;-92
2023/10/18 02:18:15;;;;;;;;;;;;;;;4.76;98.11;101104.75;5035548;28;19978;-93
2023/10/18 02:20:50;;;;;;;;;;;;;;;4.68;97.92;101103.75;5020665;28;19924;-92
2023/10/18 02:23:23;;;;;;;;;;;;;;;4.72;97.97;101097.75;5035681;28;19927;-92
2023/10/18 02:25:56;;;;;;;;;;;;;;;4.70;98.23;101089.09;5036535;28;19928;-91
2023/10/18 02:28:25;;;;;;;;;;;;;;;4.69;97.93;101090.78;5019830;28;20368;-92
2023/10/18 02:31:09;;;;;;;;;;;;;;;4.65;98.24;101083.78;5020036;28;20440;-93
2023/10/18 02:33:38;;;;;;;;;;;;;;;4.65;98.21;101082.94;5035683;28;19920;-92
2023/10/18 02:36:12;;;;;;;;;;;;;;;4.63;98.29;101076.84;5035922;28;20000;-92
2023/10/18 02:38:38;;;;;;;;;;;;;;;4.66;98.29;101076.91;5035508;28;20015;-92
2023/10/18 02:41:14;;;;;;;;;;;;;;;4.66;98.04;101076.91;5018853;28;19970;-92
2023/10/18 02:43:40;;;;;;;;;;;;;;;4.65;98.43;101075.16;5035862;28;19929;-92
2023/10/18 02:46:16;;;;;;;;;;;;;;;4.69;97.53;101076.94;5019578;28;19923;-92
2023/10/18 02:48:44;;;;;;;;;;;;;;;4.71;97.88;101069.19;5039293;28;19955;-93
2023/10/18 02:51:11;;;;;;;;;;;;;;;4.69;97.57;101072.63;5039833;28;19912;-93
2023/10/18 02:53:44;;;;;;;;;;;;;;;4.82;96.89;101065.91;5039495;28;19939;-91
2023/10/18 02:56:17;;;;;;;;;;;;;;;4.82;97.19;101063.28;5039215;28;19991;-92
2023/10/18 02:58:46;;;;;;;;;;;;;;;4.82;96.77;101059.84;5039052;28;19974;-92
2023/10/18 03:01:18;;;;;;;;;;;;;;;4.85;96.91;101068.53;5039663;28;19923;-93
2023/10/18 03:03:46;;;;;;;;;;;;;;;4.84;96.97;101061.63;5039002;28;19917;-92
2023/10/18 03:06:14;;;;;;;;;;;;;;;4.84;96.70;101055.53;5039426;28;20331;-93
2023/10/18 03:08:47;;;;;;;;;;;;;;;4.82;96.71;101047.72;5039110;28;19917;-93
2023/10/18 03:11:15;;;;;;;;;;;;;;;4.88;96.81;101040.88;5039319;28;20277;-92
2023/10/18 03:13:44;;;;;;;;;;;;;;;4.78;96.55;101043.31;5038947;28;19913;-93
2023/10/18 03:18:39;;;;;;;;;;;;;;;4.80;97.23;101038.19;5056840;28;20003;-92
2023/10/18 03:21:08;;;;;;;;;;;;;;;4.80;96.78;101036.44;5039885;28;19912;-93
2023/10/18 03:23:44;;;;;;;;;;;;;;;4.77;96.67;101036.41;5038570;28;19913;-92
2023/10/18 03:26:11;;;;;;;;;;;;;;;4.76;96.70;101037.25;5038910;28;19921;-93
2023/10/18 03:28:43;;;;;;;;;;;;;;;4.72;96.28;101034.59;5038770;28;19932;-92
2023/10/18 03:31:23;;;;;;;;;;;;;;;4.72;97.10;101027.66;5038778;28;19913;-91
2023/10/18 03:34:02;;;;;;;;;;;;;;;4.69;96.79;101020.69;5039197;28;19925;-93
2023/10/18 03:36:33;;;;;;;;;;;;;;;4.72;96.72;101014.69;5039062;28;20016;-93
2023/10/18 03:39:15;;;;;;;;;;;;;;;4.67;97.15;101021.56;5021922;28;20031;-92
2023/10/18 03:41:40;;;;;;;;;;;;;;;4.72;96.60;101019.00;5037848;28;20283;-92
2023/10/18 03:47:12;;;;;;;;;;;;;;;4.71;96.90;101012.94;5056143;28;20012;-92
2023/10/18 03:52:45;;;;;;;;;;;;;;;4.73;96.90;101006.06;5056386;28;19938;-93
2023/10/18 03:58:22;;;;;;;;;;;;;;;4.78;96.29;101001.78;5055648;28;19943;-92
2023/10/18 04:00:54;;;;;;;;;;;;;;;4.82;96.08;100992.34;5038834;28;19913;-93
2023/10/18 04:03:20;;;;;;;;;;;;;;;4.81;96.28;100988.88;5038068;28;19913;-92
2023/10/18 04:08:48;;;;;;;;;;;;;;;4.83;95.85;100987.16;5055875;28;19975;-92
2023/10/18 04:11:14;;;;;;;;;;;;;;;4.83;96.08;100976.78;5038037;28;19917;-91
2023/10/18 04:13:39;;;;;;;;;;;;;;;4.82;96.04;100964.63;5038843;28;19920;-92
2023/10/18 04:19:10;;;;;;;;;;;;;;;4.88;96.16;100968.19;5055593;28;20284;-92
2023/10/18 04:24:39;;;;;;;;;;;;;;;4.81;95.86;100954.22;5055565;28;20280;-93
2023/10/18 04:27:11;;;;;;;;;;;;;;;4.86;95.48;100949.97;5038069;28;19912;-92
2023/10/18 04:29:39;;;;;;;;;;;;;;;4.79;96.12;100948.16;5037459;28;19967;-92
2023/10/18 04:32:07;;;;;;;;;;;;;;;4.81;96.25;100947.34;5037424;28;20323;-93
2023/10/18 04:34:35;;;;;;;;;;;;;;;4.84;96.06;100939.56;5038581;28;20004;-93
2023/10/18 04:37:01;;;;;;;;;;;;;;;4.90;95.17;100927.50;5038131;28;19955;-95
2023/10/18 04:57:38;;;;;;;;;;;;;;;4.98;94.80;100910.31;4979645;28;19956;-95
2023/10/18 05:00:25;;;;;;;;;;;;;;;4.95;95.18;100903.34;5007931;28;19916;-95
2023/10/18 05:02:59;;;;;;;;;;;;;;;4.91;94.46;100896.38;5045522;28;19947;-95
2023/10/18 05:05:52;;;;;;;;;;;;;;;5.02;94.54;100901.72;5030533;28;19916;-96
2023/10/18 05:08:17;;;;;;;;;;;;;;;4.95;94.64;100897.28;5041872;28;20364;-95
2023/10/18 05:10:46;;;;;;;;;;;;;;;4.91;95.12;100905.88;5023016;28;19939;-95
2023/10/18 05:16:05;;;;;;;;;;;;;;;4.91;95.12;100911.09;5060077;28;19959;-94
2023/10/18 05:18:33;;;;;;;;;;;;;;;4.82;95.01;100898.84;5040256;28;19924;-96
2023/10/18 05:21:07;;;;;;;;;;;;;;;4.82;95.06;100899.72;5038431;28;20422;-94
2023/10/18 05:23:34;;;;;;;;;;;;;;;4.81;94.98;100892.81;5039778;28;20451;-94
2023/10/18 05:37:14;;;;;;;;;;;;;;;4.78;94.83;100877.16;5056004;28;20011;-94
2023/10/18 05:42:46;;;;;;;;;;;;;;;4.80;94.59;100887.59;5057437;28;19967;-94
2023/10/18 05:54:33;;;;;;;;;;;;;;;4.82;94.17;100870.31;5059867;28;19982;-93
2023/10/18 05:56:58;;;;;;;;;;;;;;;4.88;93.80;100866.91;5043309;28;19928;-95
2023/10/18 06:02:27;;;;;;;;;;;;;;;4.77;94.46;100857.28;5066864;28;19935;-94
2023/10/18 06:04:58;;;;;;;;;;;;;;;4.81;94.08;100856.47;5046283;28;19913;-95
2023/10/18 06:07:29;;;;;;;;;;;;;;;4.81;94.21;100853.84;5045841;28;20364;-95
2023/10/18 06:15:44;;;;;;;;;;;;;;;4.79;94.27;100854.69;5059224;28;19920;-95
2023/10/18 06:18:16;;;;;;;;;;;;;;;4.85;93.98;100853.00;5046589;28;19913;-95
2023/10/18 06:20:44;;;;;;;;;;;;;;;4.87;93.88;100853.06;5043939;28;20353;-94
2023/10/18 06:23:28;;;;;;;;;;;;;;;4.82;93.83;100842.59;5030833;28;19917;-94
2023/10/18 06:25:57;;;;;;;;;;;;;;;4.88;93.76;100841.81;5049200;28;19928;-95
2023/10/18 06:28:30;;;;;;;;;;;;;;;4.86;93.79;100839.19;5052335;28;19924;-95
2023/10/18 06:31:06;;;;;;;;;;;;;;;4.92;93.75;100845.31;5051435;28;19913;-93
2023/10/18 06:34:15;;;;;;;;;;;;;;;4.92;93.49;100832.34;5028949;28;19975;-95
2023/10/18 06:36:39;;;;;;;;;;;;;;;4.95;93.60;100832.38;5065275;28;19916;-94
2023/10/18 06:39:24;;;;;;;;;;;;;;;4.97;93.30;100828.03;5044681;28;19974;-95
2023/10/18 06:41:50;;;;;;;;;;;;;;;5.01;92.86;100820.31;5045895;28;19913;-96
2023/10/18 06:47:19;;;;;;;;;;;;;;;5.14;92.76;100815.25;5061282;28;20407;-94
2023/10/18 06:52:53;;;;;;;;;;;;;;;5.26;92.31;100809.28;5068407;28;19920;-95
2023/10/18 07:01:03;;;;;;;;;;;;;;;5.42;90.77;100805.13;5069704;28;20007;-95
2023/10/18 07:03:50;;;;;;;;;;;;;;;5.50;91.12;100799.13;5042510;28;19917;-94
2023/10/18 07:09:31;;;;;;;;;;;;;;;5.56;90.17;100782.72;5062094;28;19978;-95
2023/10/18 07:12:26;;;;;;;;;;;;;;;5.62;89.91;100792.31;5042909;28;19916;-96
2023/10/18 07:14:45;;;;;;;;;;;;;;;5.62;90.13;100787.09;5046229;28;20391;-95
2023/10/18 07:17:21;;;;;;;;;;;;;;;5.68;89.88;100792.34;5045333;28;19920;-93
2023/10/18 07:19:50;;;;;;;;;;;;;;;5.72;89.58;100794.09;5045446;28;20427;-94
2023/10/18 07:22:19;;;;;;;;;;;;;;;5.76;89.60;100790.69;5041574;28;19913;-94
2023/10/18 07:24:47;;;;;;;;;;;;;;;5.83;89.74;100778.56;5042901;28;19936;-95
2023/10/18 07:27:17;;;;;;;;;;;;;;;5.90;88.89;100781.22;5042236;28;19998;-94
2023/10/18 07:29:50;;;;;;;;;;;;;;;6.02;88.81;100771.78;5025457;28;20368;-95
2023/10/18 07:32:24;;;;;;;;;;;;;;;6.13;89.10;100769.25;5041829;28;20360;-95
2023/10/18 07:34:57;;;;;;;;;;;;;;;6.28;88.18;100764.13;5038316;28;19917;-96
2023/10/18 07:37:31;;;;;;;;;;;;;;;6.65;86.56;100758.19;5039859;28;19943;-95
2023/10/18 07:39:57;;;;;;;;;;;;;;;6.98;86.33;100756.53;5038730;28;20011;-95
2023/10/18 07:42:34;;;;;;;;;;;;;;;7.37;83.80;100754.81;5039313;28;20335;-95
2023/10/18 07:45:08;;;;;;;;;;;;;;;7.46;82.25;100762.66;5038735;28;19913;-93
2023/10/18 07:47:37;;;;;;;;;;;;;;;7.48;82.33;100752.22;5038774;28;19919;-95
2023/10/18 07:52:55;;;;;;;;;;;;;;;7.46;81.70;100744.41;5029044;28;19912;-94
2023/10/18 07:55:41;;;;;;;;;;;;;;;7.51;82.99;100736.56;5040979;28;19916;-94
2023/10/18 07:58:22;;;;;;;;;;;;;;;7.53;82.65;100722.66;5039648;28;19921;-93
2023/10/18 08:03:36;;;;;;;;;;;;;;;7.46;83.50;100731.38;5058656;28;20268;-91
2023/10/18 08:06:26;;;;;;;;;;;;;;;7.50;83.08;100746.13;5040228;28;20364;-94
2023/10/18 08:09:20;;;;;;;;;;;;;;;7.50;80.89;100721.78;5043434;28;20392;-94
2023/10/18 08:11:59;;;;;;;;;;;;;;;7.50;81.00;100727.88;5056431;28;19981;-91
2023/10/18 08:17:42;;;;;;;;;;;;;;;7.49;80.94;100723.53;5055979;28;19959;-92
2023/10/18 08:29:03;;;;;;;;;;;;;;;8.04;80.05;100713.84;5053273;28;19991;-92
2023/10/18 08:31:32;;;;;;;;;;;;;;;8.45;77.90;100712.84;5037787;28;19916;-92
2023/10/18 08:33:58;;;;;;;;;;;;;;;8.74;77.79;100710.06;5037765;28;20008;-93
2023/10/18 08:36:32;;;;;;;;;;;;;;;9.15;76.47;100706.28;5040052;28;19952;-93
2023/10/18 08:39:33;;;;;;;;;;;;;;;9.33;75.94;100720.09;5037828;28;20357;-93
2023/10/18 08:42:10;;;;;;;;;;;;;;;9.38;75.13;100713.09;5051469;28;20015;-93
2023/10/18 08:51:06;;;;;;;;;;;;;;;9.04;77.86;100702.88;5024116;28;20284;-94
2023/10/18 08:53:46;;;;;;;;;;;;;;;8.99;78.56;100696.81;5039087;28;19935;-93
2023/10/18 08:56:54;;;;;;;;;;;;;;;;;;;;;
2023/10/18 09:02:39;;;;;;;;;;;;;;;9.17;78.58;100677.53;5074754;28;20350;-93
2023/10/18 09:08:08;;;;;;;;;;;;;;;9.11;77.02;100661.91;5073937;28;19920;-94
2023/10/18 09:10:49;;;;;;;;;;;;;;;9.07;77.09;100657.56;5056773;28;19913;-94
2023/10/18 09:25:49;;;;;;;;;;;;;;;9.48;76.17;100633.63;5059214;28;19935;-93
2023/10/18 09:28:35;;;;;;;;;;;;;;;9.63;75.80;100640.44;5059533;28;19964;-94
2023/10/18 09:31:10;;;;;;;;;;;;;;;9.88;74.33;100638.41;5077326;28;20009;-94
2023/10/18 09:36:51;;;;;;;;;;;;;;;10.11;74.11;100637.25;5017725;28;19906;-94
2023/10/18 09:39:21;;;;;;;;;;;;;;;10.30;74.36;100624.78;5029993;28;19909;-94
2023/10/18 09:41:46;;;;;;;;;;;;;;;10.60;73.43;100627.84;5066641;22;20027;-67
2023/10/18 09:49:20;;;;;;;;;;;;;;;10.94;72.25;100613.38;5069256;28;19928;-68
2023/10/18 09:51:53;;;;;;;;;;;;;;;11.02;71.16;100621.94;5098853;22;19925;-67
2023/10/18 09:54:21;;;;;;;;;;;;;;;11.02;71.52;100591.38;5049580;28;19921;-66
2023/10/18 09:56:48;;;;;;;;;;;;;;;11.00;71.56;100600.13;5044399;28;19913;-67
2023/10/18 09:59:25;;;;;;;;;;;;;;;11.07;72.06;100593.91;5050551;28;20326;-67
2023/10/18 10:04:20;;;;;;;;;;;;;;;11.09;72.04;100579.88;5050724;28;19955;-68
2023/10/18 10:06:52;;;;;;;;;;;;;;;11.37;70.46;100570.63;5031256;28;19947;-68
2023/10/18 10:09:19;;;;;;;;;;;;;;;11.82;69.52;100575.81;5063540;28;19914;-67
2023/10/18 10:11:47;;;;;;;;;;;;;;;11.82;69.86;100578.44;5063423;28;19965;-67
2023/10/18 10:14:15;;;;;;;;;;;;;;;12.08;69.64;100564.81;5049168;28;19920;-66
2023/10/18 10:16:45;;;;;;;;;;;;;;;11.98;69.21;100563.25;5033988;28;19913;-66
2023/10/18 10:19:12;;;;;;;;;;;;;;;11.85;70.00;100557.41;5047887;28;19916;-68
2023/10/18 10:21:38;;;;;;;;;;;;;;;11.65;68.25;100554.31;5046385;28;19964;-68
2023/10/18 10:24:52;;;;;;;;;;;;;;;11.74;69.98;100552.38;5049835;28;19921;-68
2023/10/18 10:27:27;;;;;;;;;;;;;;;11.64;68.87;100540.34;5041554;28;20386;-68
2023/10/18 10:29:59;;;;;;;;;;;;;;;11.75;71.32;100526.97;5025229;28;19936;-69
2023/10/18 10:32:27;;;;;;;;;;;;;;;11.85;68.84;100525.00;5032752;28;19971;-66
2023/10/18 10:35:09;;;;;;;;;;;;;;;12.21;68.90;100511.97;5048441;28;19924;-66
2023/10/18 10:37:44;;;;;;;;;;;;;;;12.37;67.35;100507.19;5032200;28;19912;-66
2023/10/18 10:40:19;;;;;;;;;;;;;;;12.81;67.70;100503.47;5031636;28;20138;-66
2023/10/18 10:42:48;;;;;;;;;;;;;;;13.41;67.19;100498.31;5023981;28;19921;-67
2023/10/18 10:45:35;;;;;;;;;;;;;;;13.34;66.77;100494.13;5012469;28;20000;-66
2023/10/18 10:48:16;;;;;;;;;;;;;;;13.03;65.66;100481.84;5029510;28;19917;-67
2023/10/18 10:51:06;;;;;;;;;;;;;;;13.07;67.47;100475.56;5048037;28;20411;-67
2023/10/18 10:53:44;;;;;;;;;;;;;;;12.99;66.60;100469.69;5042504;28;19921;-67
2023/10/18 10:56:29;;;;;;;;;;;;;;;12.71;68.52;100465.16;5031737;28;19956;-67
2023/10/18 10:59:15;;;;;;;;;;;;;;;12.80;68.11;100470.19;5049848;28;19970;-67
2023/10/18 11:01:44;;;;;;;;;;;;;;;12.53;69.23;100452.47;5049645;28;19921;-67
2023/10/18 11:04:24;;;;;;;;;;;;;;;12.40;67.37;100452.81;5026970;28;19917;-66
2023/10/18 11:06:56;;;;;;;;;;;;;;;12.33;69.79;100438.13;5049615;28;19917;-67
2023/10/18 11:09:28;;;;;;;;;;;;;;;12.30;69.73;100432.94;5026013;28;19999;-67
2023/10/18 11:11:56;;;;;;;;;;;;;;;12.31;70.41;100434.66;5037011;28;20003;-66
2023/10/18 11:14:27;;;;;;;;;;;;;;;12.38;70.04;100430.09;5051568;28;19916;-67
2023/10/18 11:16:56;;;;;;;;;;;;;;;12.52;67.67;100425.34;5051892;28;19917;-66
2023/10/18 11:19:28;;;;;;;;;;;;;;;12.54;67.20;100426.19;5052700;28;19966;-67
2023/10/18 11:21:54;;;;;;;;;;;;;;;12.45;69.66;100416.75;5038596;28;19912;-67
2023/10/18 11:24:21;;;;;;;;;;;;;;;12.43;67.67;100405.44;5039163;28;19947;-66
2023/10/18 11:26:47;;;;;;;;;;;;;;;12.45;68.92;100400.13;5039788;28;19920;-69
2023/10/18 11:29:12;;;;;;;;;;;;;;;12.46;68.42;100400.09;5053005;28;19931;-68
2023/10/18 11:31:38;;;;;;;;;;;;;;;12.47;69.02;100385.22;5033635;28;20331;-69
2023/10/18 11:34:06;;;;;;;;;;;;;;;12.55;68.46;100387.63;5068317;28;19932;-68
2023/10/18 11:36:32;;;;;;;;;;;;;;;12.77;70.25;100386.13;5052076;28;20031;-68
2023/10/18 11:41:39;;;;;;;;;;;;;;;12.97;68.24;100371.53;5054153;28;20271;-69
2023/10/18 11:44:08;;;;;;;;;;;;;;;13.04;68.33;100373.06;5034974;28;19916;-68
2023/10/18 11:46:46;;;;;;;;;;;;;;;13.13;69.25;100366.66;5033750;28;19925;-68
2023/10/18 11:49:21;;;;;;;;;;;;;;;13.31;68.42;100352.97;5034447;28;19917;-67
2023/10/18 11:51:49;;;;;;;;;;;;;;;13.40;65.70;100358.88;5064084;28;19925;-66
2023/10/18 11:54:41;;;;;;;;;;;;;;;13.32;67.61;100356.47;5051432;28;19944;-67
2023/10/18 11:57:23;;;;;;;;;;;;;;;13.43;67.67;100343.88;5033588;28;19932;-66
2023/10/18 11:59:54;;;;;;;;;;;;;;;13.46;67.72;100349.03;5036470;28;19920;-67
2023/10/18 12:02:19;;;;;;;;;;;;;;;13.59;67.58;100336.34;5048265;28;20375;-67
2023/10/18 12:04:45;;;;;;;;;;;;;;;13.62;67.28;100330.09;5035396;28;19913;-67
2023/10/18 12:07:13;;;;;;;;;;;;;;;13.66;66.29;100323.81;5050346;28;19917;-67
2023/10/18 12:09:51;;;;;;;;;;;;;;;13.62;65.49;100311.66;5023078;28;20391;-67
2023/10/18 12:12:19;;;;;;;;;;;;;;;13.61;64.38;100312.59;5033952;28;19920;-66
2023/10/18 12:14:45;;;;;;;;;;;;;;;13.42;63.49;100309.69;5052566;28;19917;-67
2023/10/18 12:17:12;;;;;;;;;;;;;;;13.42;64.51;100291.25;5033666;28;19925;-67
2023/10/18 12:19:38;;;;;;;;;;;;;;;13.47;64.33;100291.97;5050134;28;20284;-67
2023/10/18 12:22:04;;;;;;;;;;;;;;;13.40;65.09;100286.03;5052127;28;20008;-67
2023/10/18 12:24:33;;;;;;;;;;;;;;;13.46;65.57;100301.66;5035250;28;19931;-67
2023/10/18 12:27:06;;;;;;;;;;;;;;;13.49;63.90;100284.91;5042284;28;19917;-66
2023/10/18 12:29:31;;;;;;;;;;;;;;;13.47;63.22;100270.94;5038638;28;19926;-66
2023/10/18 12:35:06;;;;;;;;;;;;;;;13.56;65.01;100264.50;5023438;28;20299;-67
2023/10/18 12:37:32;;;;;;;;;;;;;;;13.68;64.48;100258.81;5052058;28;19924;-67
2023/10/18 12:39:59;;;;;;;;;;;;;;;13.75;63.86;100252.44;5034948;28;19924;-66
2023/10/18 12:42:25;;;;;;;;;;;;;;;13.64;63.50;100249.31;5018510;28;20016;-68
2023/10/18 12:44:55;;;;;;;;;;;;;;;13.66;63.96;100243.09;5034753;28;19963;-68
2023/10/18 12:47:20;;;;;;;;;;;;;;;13.62;63.67;100233.56;5049029;28;19940;-68
2023/10/18 12:49:50;;;;;;;;;;;;;;;13.72;64.68;100225.34;5048897;28;19916;-68
2023/10/18 12:55:04;;;;;;;;;;;;;;;14.24;62.02;100207.69;5037748;28;19917;-68
2023/10/18 12:57:32;;;;;;;;;;;;;;;14.66;59.64;100196.44;5049614;28;19928;-68
2023/10/18 13:05:11;;;;;;;;;;;;;;;14.51;61.93;100182.06;5065015;28;19935;-69
2023/10/18 13:07:37;;;;;;;;;;;;;;;14.45;61.64;100171.75;5017584;28;20443;-66
2023/10/18 13:10:11;;;;;;;;;;;;;;;14.38;62.04;100165.84;5037275;28;19923;-68
2023/10/18 13:12:38;;;;;;;;;;;;;;;14.31;60.75;100152.94;5067234;28;19921;-68
2023/10/18 13:15:04;;;;;;;;;;;;;;;14.23;61.43;100155.88;5017992;28;19932;-67
2023/10/18 13:17:32;;;;;;;;;;;;;;;14.15;60.98;100142.13;5034362;28;19917;-66
2023/10/18 13:19:58;;;;;;;;;;;;;;;14.09;61.41;100142.38;5044847;28;20373;-66
2023/10/18 13:22:25;;;;;;;;;;;;;;;14.14;61.82;100146.56;5059045;28;19928;-65
2023/10/18 13:24:50;;;;;;;;;;;;;;;14.26;61.81;100136.47;5034210;28;19968;-66
2023/10/18 13:27:18;;;;;;;;;;;;;;;14.37;61.43;100127.22;5045555;28;19920;-65
2023/10/18 13:30:00;;;;;;;;;;;;;;;14.12;61.50;100127.31;5023555;28;20379;-67
2023/10/18 13:32:25;;;;;;;;;;;;;;;14.05;63.31;100102.13;5063353;28;19958;-66
2023/10/18 13:34:51;;;;;;;;;;;;;;;14.08;61.29;100102.00;5035899;28;19935;-66
2023/10/18 13:37:17;;;;;;;;;;;;;;;13.97;60.99;100091.00;5067570;28;19917;-66
2023/10/18 13:39:44;;;;;;;;;;;;;;;13.85;61.53;100094.97;5066548;28;19985;-67
2023/10/18 13:42:11;;;;;;;;;;;;;;;13.89;60.85;100074.63;5049324;28;19931;-67
2023/10/18 13:44:36;;;;;;;;;;;;;;;13.71;61.40;100078.84;5063418;28;19927;-68
2023/10/18 13:47:02;;;;;;;;;;;;;;;13.66;61.04;100081.59;5013518;28;20364;-68
2023/10/18 13:49:27;;;;;;;;;;;;;;;13.54;62.14;100072.41;5049613;28;19933;-68
2023/10/18 13:51:56;;;;;;;;;;;;;;;13.55;62.11;100068.84;5032166;28;20036;-68
2023/10/18 13:54:21;;;;;;;;;;;;;;;13.55;62.67;100068.84;5065093;28;20292;-67
2023/10/18 13:56:47;;;;;;;;;;;;;;;13.56;63.01;100056.53;5066714;28;19917;-68
2023/10/18 13:59:13;;;;;;;;;;;;;;;13.49;62.88;100048.88;5033415;28;20007;-68
2023/10/18 14:01:39;;;;;;;;;;;;;;;13.43;63.25;100048.22;5050717;28;20236;-67
2023/10/18 14:04:05;;;;;;;;;;;;;;;13.44;63.24;100050.81;5044255;28;19928;-67
2023/10/18 14:06:32;;;;;;;;;;;;;;;13.47;63.05;100055.09;5030911;28;20453;-67
2023/10/18 14:08:58;;;;;;;;;;;;;;;13.44;63.02;100045.53;5063406;28;19924;-67
2023/10/18 14:11:25;;;;;;;;;;;;;;;13.43;62.69;100041.22;5049579;28;19921;-68
2023/10/18 14:13:51;;;;;;;;;;;;;;;13.42;63.62;100042.13;5037539;28;19936;-68
2023/10/18 14:16:17;;;;;;;;;;;;;;;13.44;64.10;100034.16;5065640;28;19925;-68
2023/10/18 14:18:47;;;;;;;;;;;;;;;13.44;64.07;100024.50;5032419;28;19971;-68
2023/10/18 14:21:13;;;;;;;;;;;;;;;13.45;64.05;100020.94;5050242;28;20455;-67
2023/10/18 14:23:45;;;;;;;;;;;;;;;13.46;64.15;100025.31;5049514;28;19923;-68
2023/10/18 14:26:10;;;;;;;;;;;;;;;13.41;64.70;100011.44;5029209;28;20007;-68
2023/10/18 14:28:42;;;;;;;;;;;;;;;13.40;65.67;100017.63;5029649;28;20019;-68
2023/10/18 14:31:14;;;;;;;;;;;;;;;13.36;66.35;100002.88;5031508;28;19967;-68
2023/10/18 14:33:40;;;;;;;;;;;;;;;13.30;67.28;99997.78;5029984;28;20269;-68
2023/10/18 14:36:06;;;;;;;;;;;;;;;13.28;67.62;99995.22;5065845;28;19970;-68
2023/10/18 14:38:34;;;;;;;;;;;;;;;13.19;68.43;99990.31;5031773;28;19928;-66
2023/10/18 14:40:59;;;;;;;;;;;;;;;13.20;68.54;99985.88;5054604;28;19932;-67
2023/10/18 14:43:25;;;;;;;;;;;;;;;13.08;68.91;99972.25;5035003;28;19913;-67
2023/10/18 14:45:51;;;;;;;;;;;;;;;13.08;69.15;99977.53;5055101;28;19970;-67
2023/10/18 14:48:16;;;;;;;;;;;;;;;13.00;69.53;99969.91;5069387;28;19928;-67
2023/10/18 14:50:41;;;;;;;;;;;;;;;12.99;69.40;99964.72;5061169;28;20383;-67
2023/10/18 14:53:07;;;;;;;;;;;;;;;12.89;69.98;99963.34;5055459;28;19933;-68
2023/10/18 14:55:34;;;;;;;;;;;;;;;12.89;69.83;99958.06;5071251;28;19917;-68
2023/10/18 14:57:59;;;;;;;;;;;;;;;12.86;70.22;99947.63;5049627;28;19917;-68
2023/10/18 15:00:24;;;;;;;;;;;;;;;12.86;70.10;99948.53;5022631;28;20620;-68
2023/10/18 15:02:50;;;;;;;;;;;;;;;12.83;70.31;99936.34;5023613;28;19966;-67
2023/10/18 15:05:20;;;;;;;;;;;;;;;12.87;69.69;99923.91;5036534;28;20357;-66
2023/10/18 15:07:47;;;;;;;;;;;;;;;12.85;70.05;99924.91;5036750;28;20287;-66
2023/10/18 15:10:12;;;;;;;;;;;;;;;12.80;69.99;99928.56;5060656;28;19923;-67
2023/10/18 15:12:38;;;;;;;;;;;;;;;12.78;69.73;99935.63;5050714;28;20007;-65
2023/10/18 15:15:04;;;;;;;;;;;;;;;12.75;69.99;99919.97;5020826;28;20026;-66
2023/10/18 15:17:30;;;;;;;;;;;;;;;12.78;69.57;99911.13;5063791;28;19923;-66
2023/10/18 15:19:55;;;;;;;;;;;;;;;12.74;69.70;99915.66;5042084;28;19921;-65
2023/10/18 15:22:20;;;;;;;;;;;;;;;12.66;69.99;99915.03;5037862;28;20280;-67
2023/10/18 15:24:49;;;;;;;;;;;;;;;12.70;69.82;99908.78;5033607;28;19922;-68
2023/10/18 15:27:15;;;;;;;;;;;;;;;12.64;70.23;99914.22;5035393;28;19920;-68
2023/10/18 15:29:41;;;;;;;;;;;;;;;12.68;69.72;99901.84;5036953;28;20345;-68
2023/10/18 15:32:06;;;;;;;;;;;;;;;12.59;69.87;99903.88;5039753;28;19996;-68
2023/10/18 15:34:33;;;;;;;;;;;;;;;12.59;70.04;99905.66;5046287;28;19921;-68
2023/10/18 15:37:01;;;;;;;;;;;;;;;12.56;70.46;99893.47;5069023;28;19943;-68
2023/10/18 15:39:26;;;;;;;;;;;;;;;12.55;70.22;99896.16;5034417;28;20077;-68
2023/10/18 15:41:51;;;;;;;;;;;;;;;12.53;70.70;99887.47;5040444;28;19917;-68
2023/10/18 15:44:17;;;;;;;;;;;;;;;12.52;70.39;99883.13;5033587;28;19921;-68
2023/10/18 15:46:42;;;;;;;;;;;;;;;12.50;70.50;99885.81;5053353;28;20022;-68
2023/10/18 15:49:08;;;;;;;;;;;;;;;12.54;70.35;99868.16;5050806;28;19944;-68